aviador You're here:

KSGF Decoded Metar

SPRINGFIELD in MO, USA
Report Time2017-07-25 19:52:00
UTC Time2017-07-25 20:43:55
Flight Rules vfr VFR
WindCalm
Visibility9999 m
Phenomena:N/A
Clouds:N/A
Expected CloudBase > 6,400 ft AGL from Temp-Dew spread
CeilingNone
Temp36°C (ISA +24)
Dew Point20°C (39% RH)
Heat Index38.8°C
QNH1018 hPa
Density Alt4,085 ft
Elevation1,280 ft
Report Wrong Elevation
Raw Report
KSGF 251952Z 00000KT 10SM CLR 36/20 A3007 RMK AO2 SLP166
T03560200=

Extra information for KSGF:More info

Metar Taf Metar & Taf Last 4 Metars F.Rules Stats Wind Profile Meteogram Temp Stats Airport Information Weather charts Add Link Nearby VenuesMetar ALERT Operation Metar Decoded Social comments

AIRNAV info for KSGF